sensor_id;sensor_type;location;lat;lon;timestamp;P1;durP1;ratioP1;P2;durP2;ratioP2
79074;SDS011;68476;42.710;23.388;2023-09-18T00:00:21;21.10;;;16.20;;
79074;SDS011;68476;42.710;23.388;2023-09-18T00:02:49;19.85;;;15.10;;
79074;SDS011;68476;42.710;23.388;2023-09-18T00:05:15;20.65;;;16.35;;
79074;SDS011;68476;42.710;23.388;2023-09-18T00:07:44;19.08;;;15.02;;
79074;SDS011;68476;42.710;23.388;2023-09-18T00:10:10;18.13;;;15.38;;
79074;SDS011;68476;42.710;23.388;2023-09-18T00:12:36;19.33;;;15.75;;
79074;SDS011;68476;42.710;23.388;2023-09-18T00:15:02;17.50;;;15.48;;
79074;SDS011;68476;42.710;23.388;2023-09-18T00:17:27;19.27;;;15.43;;
79074;SDS011;68476;42.710;23.388;2023-09-18T00:19:53;18.92;;;14.85;;
79074;SDS011;68476;42.710;23.388;2023-09-18T00:22:19;17.40;;;14.63;;
79074;SDS011;68476;42.710;23.388;2023-09-18T00:24:44;19.20;;;15.80;;
79074;SDS011;68476;42.710;23.388;2023-09-18T00:27:10;18.10;;;13.95;;
79074;SDS011;68476;42.710;23.388;2023-09-18T00:29:36;18.65;;;13.38;;
79074;SDS011;68476;42.710;23.388;2023-09-18T00:32:01;15.48;;;13.85;;
79074;SDS011;68476;42.710;23.388;2023-09-18T00:34:28;15.55;;;12.88;;
79074;SDS011;68476;42.710;23.388;2023-09-18T00:36:54;18.58;;;11.82;;
79074;SDS011;68476;42.710;23.388;2023-09-18T00:39:20;14.73;;;12.07;;
79074;SDS011;68476;42.710;23.388;2023-09-18T00:41:45;18.60;;;13.43;;
79074;SDS011;68476;42.710;23.388;2023-09-18T00:44:14;15.50;;;12.85;;
79074;SDS011;68476;42.710;23.388;2023-09-18T00:46:39;15.75;;;12.77;;
79074;SDS011;68476;42.710;23.388;2023-09-18T00:49:05;16.50;;;12.60;;
79074;SDS011;68476;42.710;23.388;2023-09-18T00:51:31;15.23;;;12.48;;
79074;SDS011;68476;42.710;23.388;2023-09-18T00:53:57;15.65;;;12.82;;
79074;SDS011;68476;42.710;23.388;2023-09-18T00:56:24;15.15;;;11.65;;
79074;SDS011;68476;42.710;23.388;2023-09-18T00:58:49;14.70;;;12.63;;
79074;SDS011;68476;42.710;23.388;2023-09-18T01:01:16;15.75;;;11.85;;
79074;SDS011;68476;42.710;23.388;2023-09-18T01:03:48;16.52;;;12.43;;
79074;SDS011;68476;42.710;23.388;2023-09-18T01:06:15;13.73;;;11.55;;
79074;SDS011;68476;42.710;23.388;2023-09-18T01:08:41;13.77;;;11.52;;
79074;SDS011;68476;42.710;23.388;2023-09-18T01:11:06;13.43;;;10.75;;
79074;SDS011;68476;42.710;23.388;2023-09-18T01:13:47;12.60;;;9.82;;
79074;SDS011;68476;42.710;23.388;2023-09-18T01:16:27;11.25;;;9.13;;
79074;SDS011;68476;42.710;23.388;2023-09-18T01:19:00;12.32;;;9.40;;
79074;SDS011;68476;42.710;23.388;2023-09-18T01:21:28;12.10;;;9.25;;
79074;SDS011;68476;42.710;23.388;2023-09-18T01:23:53;13.82;;;9.18;;
79074;SDS011;68476;42.710;23.388;2023-09-18T01:26:18;11.80;;;8.57;;
79074;SDS011;68476;42.710;23.388;2023-09-18T01:28:44;10.02;;;8.65;;
79074;SDS011;68476;42.710;23.388;2023-09-18T01:31:09;11.32;;;8.95;;
79074;SDS011;68476;42.710;23.388;2023-09-18T01:33:34;12.48;;;9.50;;
79074;SDS011;68476;42.710;23.388;2023-09-18T01:36:02;13.73;;;10.10;;
79074;SDS011;68476;42.710;23.388;2023-09-18T01:38:28;13.23;;;10.68;;
79074;SDS011;68476;42.710;23.388;2023-09-18T01:40:54;14.00;;;10.85;;
79074;SDS011;68476;42.710;23.388;2023-09-18T01:43:20;13.88;;;10.73;;
79074;SDS011;68476;42.710;23.388;2023-09-18T01:45:46;15.82;;;11.43;;
79074;SDS011;68476;42.710;23.388;2023-09-18T01:48:12;15.52;;;10.85;;
79074;SDS011;68476;42.710;23.388;2023-09-18T01:50:38;13.70;;;11.60;;
79074;SDS011;68476;42.710;23.388;2023-09-18T01:53:05;16.73;;;12.13;;
79074;SDS011;68476;42.710;23.388;2023-09-18T01:55:31;13.10;;;10.88;;
79074;SDS011;68476;42.710;23.388;2023-09-18T01:57:57;13.80;;;11.65;;
79074;SDS011;68476;42.710;23.388;2023-09-18T02:00:23;14.38;;;11.93;;
79074;SDS011;68476;42.710;23.388;2023-09-18T02:02:49;14.63;;;11.10;;
79074;SDS011;68476;42.710;23.388;2023-09-18T02:05:14;14.40;;;11.25;;
79074;SDS011;68476;42.710;23.388;2023-09-18T02:07:39;14.65;;;11.30;;
79074;SDS011;68476;42.710;23.388;2023-09-18T02:10:05;13.15;;;11.05;;
79074;SDS011;68476;42.710;23.388;2023-09-18T02:12:31;13.68;;;10.68;;
79074;SDS011;68476;42.710;23.388;2023-09-18T02:14:57;13.80;;;10.20;;
79074;SDS011;68476;42.710;23.388;2023-09-18T02:17:23;11.98;;;10.40;;
79074;SDS011;68476;42.710;23.388;2023-09-18T02:19:49;11.88;;;9.60;;
79074;SDS011;68476;42.710;23.388;2023-09-18T02:22:15;12.05;;;9.77;;
79074;SDS011;68476;42.710;23.388;2023-09-18T02:24:40;12.57;;;9.68;;
79074;SDS011;68476;42.710;23.388;2023-09-18T02:27:05;14.55;;;10.00;;
79074;SDS011;68476;42.710;23.388;2023-09-18T02:29:31;13.30;;;10.23;;
79074;SDS011;68476;42.710;23.388;2023-09-18T02:31:56;12.00;;;9.90;;
79074;SDS011;68476;42.710;23.388;2023-09-18T02:34:22;11.38;;;8.88;;
79074;SDS011;68476;42.710;23.388;2023-09-18T02:36:47;12.80;;;9.50;;
79074;SDS011;68476;42.710;23.388;2023-09-18T02:39:12;11.50;;;9.35;;
79074;SDS011;68476;42.710;23.388;2023-09-18T02:41:38;12.90;;;8.52;;
79074;SDS011;68476;42.710;23.388;2023-09-18T02:44:03;10.05;;;7.85;;
79074;SDS011;68476;42.710;23.388;2023-09-18T02:46:29;11.50;;;8.45;;
79074;SDS011;68476;42.710;23.388;2023-09-18T02:48:55;11.20;;;7.95;;
79074;SDS011;68476;42.710;23.388;2023-09-18T02:51:20;13.23;;;8.35;;
79074;SDS011;68476;42.710;23.388;2023-09-18T02:53:47;11.65;;;9.10;;
79074;SDS011;68476;42.710;23.388;2023-09-18T02:56:12;12.30;;;8.82;;
79074;SDS011;68476;42.710;23.388;2023-09-18T02:58:38;12.23;;;8.85;;
79074;SDS011;68476;42.710;23.388;2023-09-18T03:01:06;11.10;;;9.10;;
79074;SDS011;68476;42.710;23.388;2023-09-18T03:03:32;11.20;;;9.23;;
79074;SDS011;68476;42.710;23.388;2023-09-18T03:06:02;14.15;;;10.25;;
79074;SDS011;68476;42.710;23.388;2023-09-18T03:08:29;11.95;;;10.30;;
79074;SDS011;68476;42.710;23.388;2023-09-18T03:10:56;13.75;;;10.13;;
79074;SDS011;68476;42.710;23.388;2023-09-18T03:13:22;13.73;;;10.20;;
79074;SDS011;68476;42.710;23.388;2023-09-18T03:15:47;13.02;;;10.40;;
79074;SDS011;68476;42.710;23.388;2023-09-18T03:18:13;12.07;;;10.27;;
79074;SDS011;68476;42.710;23.388;2023-09-18T03:20:38;15.25;;;11.32;;
79074;SDS011;68476;42.710;23.388;2023-09-18T03:23:04;15.68;;;11.27;;
79074;SDS011;68476;42.710;23.388;2023-09-18T03:25:29;17.55;;;12.38;;
79074;SDS011;68476;42.710;23.388;2023-09-18T03:27:56;15.35;;;11.32;;
79074;SDS011;68476;42.710;23.388;2023-09-18T03:30:23;14.63;;;11.75;;
79074;SDS011;68476;42.710;23.388;2023-09-18T03:32:49;15.75;;;12.13;;
79074;SDS011;68476;42.710;23.388;2023-09-18T03:35:14;17.27;;;11.82;;
79074;SDS011;68476;42.710;23.388;2023-09-18T03:37:43;15.13;;;12.80;;
79074;SDS011;68476;42.710;23.388;2023-09-18T03:40:16;16.98;;;12.05;;
79074;SDS011;68476;42.710;23.388;2023-09-18T03:42:42;16.83;;;12.65;;
79074;SDS011;68476;42.710;23.388;2023-09-18T03:45:08;19.25;;;13.13;;
79074;SDS011;68476;42.710;23.388;2023-09-18T03:47:34;18.70;;;12.75;;
79074;SDS011;68476;42.710;23.388;2023-09-18T03:50:05;17.33;;;12.70;;
79074;SDS011;68476;42.710;23.388;2023-09-18T03:52:31;17.92;;;12.65;;
79074;SDS011;68476;42.710;23.388;2023-09-18T03:54:56;19.63;;;13.95;;
79074;SDS011;68476;42.710;23.388;2023-09-18T03:57:22;18.40;;;13.57;;
79074;SDS011;68476;42.710;23.388;2023-09-18T03:59:47;17.88;;;13.02;;
79074;SDS011;68476;42.710;23.388;2023-09-18T04:02:13;17.58;;;11.57;;
79074;SDS011;68476;42.710;23.388;2023-09-18T04:04:38;14.35;;;10.20;;
79074;SDS011;68476;42.710;23.388;2023-09-18T04:07:07;14.00;;;10.20;;
79074;SDS011;68476;42.710;23.388;2023-09-18T04:09:33;12.57;;;9.40;;
79074;SDS011;68476;42.710;23.388;2023-09-18T04:12:01;15.65;;;9.27;;
79074;SDS011;68476;42.710;23.388;2023-09-18T04:14:27;12.07;;;8.95;;
79074;SDS011;68476;42.710;23.388;2023-09-18T04:16:53;10.32;;;8.07;;
79074;SDS011;68476;42.710;23.388;2023-09-18T04:19:18;12.68;;;8.50;;
79074;SDS011;68476;42.710;23.388;2023-09-18T04:21:43;12.73;;;8.93;;
79074;SDS011;68476;42.710;23.388;2023-09-18T04:24:09;15.38;;;8.93;;
79074;SDS011;68476;42.710;23.388;2023-09-18T04:26:34;14.68;;;9.45;;
79074;SDS011;68476;42.710;23.388;2023-09-18T04:29:00;13.07;;;9.77;;
79074;SDS011;68476;42.710;23.388;2023-09-18T04:31:26;13.65;;;9.43;;
79074;SDS011;68476;42.710;23.388;2023-09-18T04:33:53;13.55;;;9.00;;
79074;SDS011;68476;42.710;23.388;2023-09-18T04:36:18;14.48;;;9.75;;
79074;SDS011;68476;42.710;23.388;2023-09-18T04:38:44;15.27;;;9.85;;
79074;SDS011;68476;42.710;23.388;2023-09-18T04:41:09;13.40;;;9.95;;
79074;SDS011;68476;42.710;23.388;2023-09-18T04:43:39;14.13;;;10.10;;
79074;SDS011;68476;42.710;23.388;2023-09-18T04:46:05;14.27;;;9.77;;
79074;SDS011;68476;42.710;23.388;2023-09-18T04:48:30;17.85;;;10.95;;
79074;SDS011;68476;42.710;23.388;2023-09-18T04:50:57;13.27;;;9.95;;
79074;SDS011;68476;42.710;23.388;2023-09-18T04:53:23;14.60;;;10.93;;
79074;SDS011;68476;42.710;23.388;2023-09-18T04:55:49;17.80;;;11.27;;
79074;SDS011;68476;42.710;23.388;2023-09-18T04:58:15;18.70;;;10.73;;
79074;SDS011;68476;42.710;23.388;2023-09-18T05:00:41;14.88;;;10.52;;
79074;SDS011;68476;42.710;23.388;2023-09-18T05:03:07;12.77;;;9.90;;
79074;SDS011;68476;42.710;23.388;2023-09-18T05:05:36;16.13;;;10.75;;
79074;SDS011;68476;42.710;23.388;2023-09-18T05:08:02;16.52;;;10.30;;
79074;SDS011;68476;42.710;23.388;2023-09-18T05:10:29;19.13;;;10.88;;
79074;SDS011;68476;42.710;23.388;2023-09-18T05:12:55;11.57;;;9.25;;
79074;SDS011;68476;42.710;23.388;2023-09-18T05:15:24;12.85;;;9.18;;
79074;SDS011;68476;42.710;23.388;2023-09-18T05:17:59;12.05;;;9.35;;
79074;SDS011;68476;42.710;23.388;2023-09-18T05:20:25;13.05;;;8.93;;
79074;SDS011;68476;42.710;23.388;2023-09-18T05:22:52;11.73;;;9.27;;
79074;SDS011;68476;42.710;23.388;2023-09-18T05:25:19;11.60;;;9.18;;
79074;SDS011;68476;42.710;23.388;2023-09-18T05:27:46;17.70;;;10.38;;
79074;SDS011;68476;42.710;23.388;2023-09-18T05:30:17;16.35;;;10.88;;
79074;SDS011;68476;42.710;23.388;2023-09-18T05:32:46;15.85;;;10.80;;
79074;SDS011;68476;42.710;23.388;2023-09-18T05:35:13;15.93;;;10.80;;
79074;SDS011;68476;42.710;23.388;2023-09-18T05:37:40;14.35;;;10.93;;
79074;SDS011;68476;42.710;23.388;2023-09-18T05:40:06;17.42;;;11.77;;
79074;SDS011;68476;42.710;23.388;2023-09-18T05:42:40;17.15;;;11.10;;
79074;SDS011;68476;42.710;23.388;2023-09-18T05:45:13;15.00;;;10.77;;
79074;SDS011;68476;42.710;23.388;2023-09-18T05:47:40;17.95;;;10.90;;
79074;SDS011;68476;42.710;23.388;2023-09-18T05:50:06;16.60;;;10.23;;
79074;SDS011;68476;42.710;23.388;2023-09-18T05:52:34;14.63;;;9.50;;
79074;SDS011;68476;42.710;23.388;2023-09-18T05:55:00;14.68;;;9.82;;
79074;SDS011;68476;42.710;23.388;2023-09-18T05:57:27;13.70;;;8.95;;
79074;SDS011;68476;42.710;23.388;2023-09-18T05:59:53;12.43;;;8.50;;
79074;SDS011;68476;42.710;23.388;2023-09-18T06:02:20;11.05;;;8.30;;
79074;SDS011;68476;42.710;23.388;2023-09-18T06:04:46;10.52;;;6.68;;
79074;SDS011;68476;42.710;23.388;2023-09-18T06:07:11;8.82;;;6.10;;
79074;SDS011;68476;42.710;23.388;2023-09-18T06:09:38;10.45;;;7.13;;
79074;SDS011;68476;42.710;23.388;2023-09-18T06:12:04;10.90;;;6.57;;
79074;SDS011;68476;42.710;23.388;2023-09-18T06:14:30;8.65;;;6.38;;
79074;SDS011;68476;42.710;23.388;2023-09-18T06:16:56;8.52;;;6.60;;
79074;SDS011;68476;42.710;23.388;2023-09-18T06:19:22;9.18;;;7.40;;
79074;SDS011;68476;42.710;23.388;2023-09-18T06:21:47;8.65;;;6.97;;
79074;SDS011;68476;42.710;23.388;2023-09-18T06:24:12;13.07;;;7.30;;
79074;SDS011;68476;42.710;23.388;2023-09-18T06:26:38;11.70;;;8.02;;
79074;SDS011;68476;42.710;23.388;2023-09-18T06:29:04;9.85;;;7.88;;
79074;SDS011;68476;42.710;23.388;2023-09-18T06:31:30;11.57;;;7.65;;
79074;SDS011;68476;42.710;23.388;2023-09-18T06:33:56;12.35;;;8.40;;
79074;SDS011;68476;42.710;23.388;2023-09-18T06:36:21;10.48;;;8.38;;
79074;SDS011;68476;42.710;23.388;2023-09-18T06:38:47;11.10;;;8.25;;
79074;SDS011;68476;42.710;23.388;2023-09-18T06:41:12;11.88;;;8.75;;
79074;SDS011;68476;42.710;23.388;2023-09-18T06:43:38;13.65;;;10.15;;
79074;SDS011;68476;42.710;23.388;2023-09-18T06:46:03;13.85;;;9.25;;
79074;SDS011;68476;42.710;23.388;2023-09-18T06:48:28;13.50;;;10.02;;
79074;SDS011;68476;42.710;23.388;2023-09-18T06:50:57;12.05;;;9.45;;
79074;SDS011;68476;42.710;23.388;2023-09-18T06:53:25;12.57;;;9.88;;
79074;SDS011;68476;42.710;23.388;2023-09-18T06:55:51;17.80;;;11.60;;
79074;SDS011;68476;42.710;23.388;2023-09-18T06:58:17;14.25;;;9.98;;
79074;SDS011;68476;42.710;23.388;2023-09-18T07:00:42;14.45;;;10.50;;
79074;SDS011;68476;42.710;23.388;2023-09-18T07:03:07;13.48;;;9.88;;
79074;SDS011;68476;42.710;23.388;2023-09-18T07:05:34;13.30;;;9.95;;
79074;SDS011;68476;42.710;23.388;2023-09-18T07:08:00;12.80;;;10.48;;
79074;SDS011;68476;42.710;23.388;2023-09-18T07:10:25;16.40;;;10.88;;
79074;SDS011;68476;42.710;23.388;2023-09-18T07:12:51;12.95;;;10.63;;
79074;SDS011;68476;42.710;23.388;2023-09-18T07:15:17;12.50;;;10.40;;
79074;SDS011;68476;42.710;23.388;2023-09-18T07:17:42;12.73;;;10.38;;
79074;SDS011;68476;42.710;23.388;2023-09-18T07:20:08;14.27;;;10.73;;
79074;SDS011;68476;42.710;23.388;2023-09-18T07:22:39;12.68;;;10.38;;
79074;SDS011;68476;42.710;23.388;2023-09-18T07:25:06;13.60;;;9.90;;
79074;SDS011;68476;42.710;23.388;2023-09-18T07:27:32;15.00;;;10.63;;
79074;SDS011;68476;42.710;23.388;2023-09-18T07:29:58;13.07;;;10.18;;
79074;SDS011;68476;42.710;23.388;2023-09-18T07:32:23;12.73;;;9.40;;
79074;SDS011;68476;42.710;23.388;2023-09-18T07:34:51;12.80;;;9.25;;
79074;SDS011;68476;42.710;23.388;2023-09-18T07:37:17;11.40;;;8.63;;
79074;SDS011;68476;42.710;23.388;2023-09-18T07:42:11;10.40;;;8.60;;
79074;SDS011;68476;42.710;23.388;2023-09-18T07:44:36;11.75;;;8.95;;
79074;SDS011;68476;42.710;23.388;2023-09-18T07:47:01;11.40;;;8.38;;
79074;SDS011;68476;42.710;23.388;2023-09-18T07:49:27;12.50;;;10.27;;
79074;SDS011;68476;42.710;23.388;2023-09-18T07:51:52;12.60;;;9.45;;
79074;SDS011;68476;42.710;23.388;2023-09-18T07:54:18;10.15;;;9.00;;
79074;SDS011;68476;42.710;23.388;2023-09-18T07:56:43;10.07;;;8.18;;
79074;SDS011;68476;42.710;23.388;2023-09-18T07:59:08;10.40;;;8.20;;
79074;SDS011;68476;42.710;23.388;2023-09-18T08:01:35;10.93;;;8.88;;
79074;SDS011;68476;42.710;23.388;2023-09-18T08:04:01;10.63;;;9.52;;
79074;SDS011;68476;42.710;23.388;2023-09-18T08:06:30;11.60;;;8.38;;
79074;SDS011;68476;42.710;23.388;2023-09-18T08:08:55;11.05;;;8.32;;
79074;SDS011;68476;42.710;23.388;2023-09-18T08:11:21;10.85;;;8.48;;
79074;SDS011;68476;42.710;23.388;2023-09-18T08:13:46;10.25;;;8.30;;
79074;SDS011;68476;42.710;23.388;2023-09-18T08:16:11;12.23;;;9.20;;
79074;SDS011;68476;42.710;23.388;2023-09-18T08:18:38;10.35;;;8.63;;
79074;SDS011;68476;42.710;23.388;2023-09-18T08:21:06;12.10;;;9.50;;
79074;SDS011;68476;42.710;23.388;2023-09-18T08:23:34;11.00;;;8.98;;
79074;SDS011;68476;42.710;23.388;2023-09-18T08:26:03;9.82;;;8.65;;
79074;SDS011;68476;42.710;23.388;2023-09-18T08:28:29;10.25;;;8.05;;
79074;SDS011;68476;42.710;23.388;2023-09-18T08:30:55;12.00;;;8.23;;
79074;SDS011;68476;42.710;23.388;2023-09-18T08:33:20;10.10;;;8.35;;
79074;SDS011;68476;42.710;23.388;2023-09-18T08:35:46;10.77;;;8.73;;
79074;SDS011;68476;42.710;23.388;2023-09-18T08:38:12;11.38;;;8.80;;
79074;SDS011;68476;42.710;23.388;2023-09-18T08:40:40;12.55;;;9.93;;
79074;SDS011;68476;42.710;23.388;2023-09-18T08:43:07;9.93;;;8.50;;
79074;SDS011;68476;42.710;23.388;2023-09-18T08:48:18;11.43;;;8.63;;
79074;SDS011;68476;42.710;23.388;2023-09-18T08:50:45;11.20;;;9.23;;
79074;SDS011;68476;42.710;23.388;2023-09-18T08:53:12;14.38;;;8.32;;
79074;SDS011;68476;42.710;23.388;2023-09-18T08:55:37;11.13;;;8.43;;
79074;SDS011;68476;42.710;23.388;2023-09-18T08:58:03;11.45;;;9.38;;
79074;SDS011;68476;42.710;23.388;2023-09-18T09:00:28;9.38;;;7.72;;
79074;SDS011;68476;42.710;23.388;2023-09-18T09:02:54;11.63;;;8.05;;
79074;SDS011;68476;42.710;23.388;2023-09-18T09:05:22;10.05;;;7.95;;
79074;SDS011;68476;42.710;23.388;2023-09-18T09:07:49;10.75;;;8.25;;
79074;SDS011;68476;42.710;23.388;2023-09-18T09:10:15;9.35;;;8.02;;
79074;SDS011;68476;42.710;23.388;2023-09-18T09:13:14;9.50;;;7.28;;
79074;SDS011;68476;42.710;23.388;2023-09-18T09:15:34;10.48;;;7.35;;
79074;SDS011;68476;42.710;23.388;2023-09-18T09:18:11;10.48;;;7.72;;
79074;SDS011;68476;42.710;23.388;2023-09-18T09:20:39;9.25;;;8.00;;
79074;SDS011;68476;42.710;23.388;2023-09-18T09:23:05;11.95;;;8.05;;
79074;SDS011;68476;42.710;23.388;2023-09-18T09:25:33;10.60;;;7.53;;
79074;SDS011;68476;42.710;23.388;2023-09-18T09:28:00;9.75;;;7.10;;
79074;SDS011;68476;42.710;23.388;2023-09-18T09:30:27;8.48;;;6.97;;
79074;SDS011;68476;42.710;23.388;2023-09-18T09:32:54;8.30;;;7.15;;
79074;SDS011;68476;42.710;23.388;2023-09-18T09:35:22;8.65;;;7.07;;
79074;SDS011;68476;42.710;23.388;2023-09-18T09:37:58;8.85;;;7.68;;
79074;SDS011;68476;42.710;23.388;2023-09-18T09:40:26;10.02;;;7.30;;
79074;SDS011;68476;42.710;23.388;2023-09-18T09:42:53;8.20;;;7.40;;
79074;SDS011;68476;42.710;23.388;2023-09-18T09:45:25;10.65;;;8.05;;
79074;SDS011;68476;42.710;23.388;2023-09-18T09:47:53;9.55;;;7.50;;
79074;SDS011;68476;42.710;23.388;2023-09-18T09:50:19;8.63;;;6.45;;
79074;SDS011;68476;42.710;23.388;2023-09-18T09:52:48;7.95;;;6.85;;
79074;SDS011;68476;42.710;23.388;2023-09-18T09:57:53;14.75;;;7.18;;
79074;SDS011;68476;42.710;23.388;2023-09-18T10:00:22;8.27;;;6.97;;
79074;SDS011;68476;42.710;23.388;2023-09-18T10:03:02;7.82;;;6.78;;
79074;SDS011;68476;42.710;23.388;2023-09-18T10:05:34;9.45;;;6.75;;
79074;SDS011;68476;42.710;23.388;2023-09-18T10:08:06;11.32;;;6.30;;
79074;SDS011;68476;42.710;23.388;2023-09-18T10:10:38;10.43;;;6.32;;
79074;SDS011;68476;42.710;23.388;2023-09-18T10:13:12;7.15;;;6.35;;
79074;SDS011;68476;42.710;23.388;2023-09-18T10:15:51;8.18;;;6.07;;
79074;SDS011;68476;42.710;23.388;2023-09-18T10:21:14;6.57;;;5.85;;
79074;SDS011;68476;42.710;23.388;2023-09-18T10:28:49;6.05;;;5.40;;
79074;SDS011;68476;42.710;23.388;2023-09-18T10:31:18;6.78;;;5.30;;
79074;SDS011;68476;42.710;23.388;2023-09-18T10:33:45;7.90;;;5.57;;
79074;SDS011;68476;42.710;23.388;2023-09-18T10:36:13;5.65;;;5.13;;
79074;SDS011;68476;42.710;23.388;2023-09-18T10:38:42;5.93;;;5.22;;
79074;SDS011;68476;42.710;23.388;2023-09-18T10:41:14;7.45;;;5.38;;
79074;SDS011;68476;42.710;23.388;2023-09-18T10:43:43;5.95;;;5.20;;
79074;SDS011;68476;42.710;23.388;2023-09-18T10:46:11;8.40;;;5.20;;
79074;SDS011;68476;42.710;23.388;2023-09-18T10:48:38;5.35;;;4.85;;
79074;SDS011;68476;42.710;23.388;2023-09-18T10:53:32;5.95;;;5.30;;
79074;SDS011;68476;42.710;23.388;2023-09-18T10:55:58;7.03;;;5.20;;
79074;SDS011;68476;42.710;23.388;2023-09-18T10:58:24;6.72;;;4.93;;
79074;SDS011;68476;42.710;23.388;2023-09-18T11:00:50;8.02;;;5.22;;
79074;SDS011;68476;42.710;23.388;2023-09-18T11:03:16;5.63;;;5.07;;
79074;SDS011;68476;42.710;23.388;2023-09-18T11:05:44;5.85;;;4.90;;
79074;SDS011;68476;42.710;23.388;2023-09-18T11:13:43;6.85;;;5.20;;
79074;SDS011;68476;42.710;23.388;2023-09-18T11:21:17;5.97;;;5.05;;
79074;SDS011;68476;42.710;23.388;2023-09-18T11:23:48;6.38;;;5.30;;
79074;SDS011;68476;42.710;23.388;2023-09-18T11:26:23;5.20;;;4.25;;
79074;SDS011;68476;42.710;23.388;2023-09-18T11:29:39;6.57;;;4.72;;
79074;SDS011;68476;42.710;23.388;2023-09-18T11:31:49;8.30;;;4.97;;
79074;SDS011;68476;42.710;23.388;2023-09-18T11:34:19;8.55;;;5.35;;
79074;SDS011;68476;42.710;23.388;2023-09-18T11:36:47;7.00;;;5.18;;
79074;SDS011;68476;42.710;23.388;2023-09-18T11:39:13;6.75;;;5.03;;
79074;SDS011;68476;42.710;23.388;2023-09-18T11:41:39;6.70;;;4.93;;
79074;SDS011;68476;42.710;23.388;2023-09-18T11:46:48;5.05;;;4.55;;
79074;SDS011;68476;42.710;23.388;2023-09-18T11:49:21;6.35;;;4.63;;
79074;SDS011;68476;42.710;23.388;2023-09-18T11:51:47;7.20;;;4.40;;
79074;SDS011;68476;42.710;23.388;2023-09-18T11:54:14;5.22;;;4.43;;
79074;SDS011;68476;42.710;23.388;2023-09-18T11:56:41;5.90;;;4.47;;
79074;SDS011;68476;42.710;23.388;2023-09-18T11:59:07;6.00;;;4.93;;
79074;SDS011;68476;42.710;23.388;2023-09-18T12:01:33;6.75;;;4.72;;
79074;SDS011;68476;42.710;23.388;2023-09-18T12:04:01;6.28;;;5.18;;
79074;SDS011;68476;42.710;23.388;2023-09-18T12:06:27;8.80;;;5.10;;
79074;SDS011;68476;42.710;23.388;2023-09-18T12:08:53;5.20;;;4.65;;
79074;SDS011;68476;42.710;23.388;2023-09-18T12:11:19;6.65;;;4.90;;
79074;SDS011;68476;42.710;23.388;2023-09-18T12:13:55;5.50;;;4.53;;
79074;SDS011;68476;42.710;23.388;2023-09-18T12:16:20;7.05;;;5.30;;
79074;SDS011;68476;42.710;23.388;2023-09-18T12:18:46;7.55;;;4.95;;
79074;SDS011;68476;42.710;23.388;2023-09-18T12:21:15;7.03;;;5.25;;
79074;SDS011;68476;42.710;23.388;2023-09-18T12:23:43;8.32;;;5.00;;
79074;SDS011;68476;42.710;23.388;2023-09-18T12:26:11;5.82;;;4.22;;
79074;SDS011;68476;42.710;23.388;2023-09-18T12:28:40;5.68;;;4.32;;
79074;SDS011;68476;42.710;23.388;2023-09-18T12:31:13;4.93;;;4.25;;
79074;SDS011;68476;42.710;23.388;2023-09-18T12:33:41;5.53;;;4.38;;
79074;SDS011;68476;42.710;23.388;2023-09-18T12:36:09;6.68;;;4.75;;
79074;SDS011;68476;42.710;23.388;2023-09-18T12:38:34;5.43;;;4.20;;
79074;SDS011;68476;42.710;23.388;2023-09-18T12:41:02;5.55;;;4.50;;
79074;SDS011;68476;42.710;23.388;2023-09-18T12:43:49;5.50;;;4.40;;
79074;SDS011;68476;42.710;23.388;2023-09-18T12:46:15;5.05;;;4.55;;
79074;SDS011;68476;42.710;23.388;2023-09-18T12:48:41;5.32;;;4.38;;
79074;SDS011;68476;42.710;23.388;2023-09-18T12:51:10;6.75;;;4.78;;
79074;SDS011;68476;42.710;23.388;2023-09-18T12:53:36;5.25;;;4.45;;
79074;SDS011;68476;42.710;23.388;2023-09-18T12:56:09;5.22;;;4.57;;
79074;SDS011;68476;42.710;23.388;2023-09-18T12:58:37;6.65;;;4.10;;
79074;SDS011;68476;42.710;23.388;2023-09-18T13:01:04;6.43;;;4.90;;
79074;SDS011;68476;42.710;23.388;2023-09-18T13:03:35;5.15;;;4.22;;
79074;SDS011;68476;42.710;23.388;2023-09-18T13:06:07;5.78;;;4.50;;
79074;SDS011;68476;42.710;23.388;2023-09-18T13:08:33;6.50;;;4.70;;
79074;SDS011;68476;42.710;23.388;2023-09-18T13:10:58;6.63;;;4.15;;
79074;SDS011;68476;42.710;23.388;2023-09-18T13:13:28;5.60;;;4.10;;
79074;SDS011;68476;42.710;23.388;2023-09-18T13:15:57;7.28;;;4.50;;
79074;SDS011;68476;42.710;23.388;2023-09-18T13:18:24;6.20;;;4.28;;
79074;SDS011;68476;42.710;23.388;2023-09-18T13:20:50;6.55;;;4.13;;
79074;SDS011;68476;42.710;23.388;2023-09-18T13:23:16;6.68;;;4.20;;
79074;SDS011;68476;42.710;23.388;2023-09-18T13:25:42;6.60;;;4.40;;
79074;SDS011;68476;42.710;23.388;2023-09-18T13:28:10;7.32;;;4.82;;
79074;SDS011;68476;42.710;23.388;2023-09-18T13:30:36;5.25;;;3.97;;
79074;SDS011;68476;42.710;23.388;2023-09-18T13:33:09;4.72;;;4.05;;
79074;SDS011;68476;42.710;23.388;2023-09-18T13:35:42;7.00;;;4.35;;
79074;SDS011;68476;42.710;23.388;2023-09-18T13:38:10;4.75;;;4.05;;
79074;SDS011;68476;42.710;23.388;2023-09-18T13:40:37;5.68;;;4.30;;
79074;SDS011;68476;42.710;23.388;2023-09-18T13:43:04;5.68;;;4.07;;
79074;SDS011;68476;42.710;23.388;2023-09-18T13:45:30;4.40;;;4.00;;
79074;SDS011;68476;42.710;23.388;2023-09-18T13:47:56;4.57;;;4.05;;
79074;SDS011;68476;42.710;23.388;2023-09-18T13:50:21;7.82;;;4.60;;
79074;SDS011;68476;42.710;23.388;2023-09-18T13:52:47;7.15;;;4.32;;
79074;SDS011;68476;42.710;23.388;2023-09-18T13:55:12;5.57;;;3.88;;
79074;SDS011;68476;42.710;23.388;2023-09-18T13:57:38;6.25;;;4.20;;
79074;SDS011;68476;42.710;23.388;2023-09-18T14:00:05;6.50;;;4.50;;
79074;SDS011;68476;42.710;23.388;2023-09-18T14:02:32;6.15;;;4.13;;
79074;SDS011;68476;42.710;23.388;2023-09-18T14:04:58;10.75;;;4.68;;
79074;SDS011;68476;42.710;23.388;2023-09-18T14:07:24;8.10;;;4.70;;
79074;SDS011;68476;42.710;23.388;2023-09-18T14:09:49;8.00;;;5.13;;
79074;SDS011;68476;42.710;23.388;2023-09-18T14:12:15;7.55;;;4.78;;
79074;SDS011;68476;42.710;23.388;2023-09-18T14:14:41;5.97;;;5.10;;
79074;SDS011;68476;42.710;23.388;2023-09-18T14:17:08;7.75;;;5.38;;
79074;SDS011;68476;42.710;23.388;2023-09-18T14:19:34;8.95;;;5.13;;
79074;SDS011;68476;42.710;23.388;2023-09-18T14:21:59;7.03;;;4.85;;
79074;SDS011;68476;42.710;23.388;2023-09-18T14:24:29;6.55;;;4.85;;
79074;SDS011;68476;42.710;23.388;2023-09-18T14:26:55;9.65;;;4.93;;
79074;SDS011;68476;42.710;23.388;2023-09-18T14:29:21;6.85;;;5.13;;
79074;SDS011;68476;42.710;23.388;2023-09-18T14:31:46;5.82;;;5.22;;
79074;SDS011;68476;42.710;23.388;2023-09-18T14:34:11;7.45;;;5.32;;
79074;SDS011;68476;42.710;23.388;2023-09-18T14:36:37;8.82;;;5.55;;
79074;SDS011;68476;42.710;23.388;2023-09-18T14:39:05;6.90;;;5.13;;
79074;SDS011;68476;42.710;23.388;2023-09-18T14:41:36;6.55;;;5.68;;
79074;SDS011;68476;42.710;23.388;2023-09-18T14:44:06;6.93;;;4.90;;
79074;SDS011;68476;42.710;23.388;2023-09-18T14:46:34;5.88;;;4.95;;
79074;SDS011;68476;42.710;23.388;2023-09-18T14:49:00;5.88;;;4.78;;
79074;SDS011;68476;42.710;23.388;2023-09-18T14:51:29;5.75;;;4.50;;
79074;SDS011;68476;42.710;23.388;2023-09-18T14:53:55;5.65;;;4.65;;